sensor_id;sensor_type;location;lat;lon;timestamp;pressure;altitude;pressure_sealevel;temperature;humidity
49827;BME280;35715;51.570;6.036;2023-04-04T00:00:20;102849.34;;;3.29;66.91
49827;BME280;35715;51.570;6.036;2023-04-04T00:02:45;102850.66;;;3.33;66.30
49827;BME280;35715;51.570;6.036;2023-04-04T00:05:10;102851.59;;;3.33;67.08
49827;BME280;35715;51.570;6.036;2023-04-04T00:07:35;102853.34;;;3.27;66.09
49827;BME280;35715;51.570;6.036;2023-04-04T00:10:01;102851.31;;;3.25;65.59
49827;BME280;35715;51.570;6.036;2023-04-04T00:12:26;102850.41;;;3.24;67.12
49827;BME280;35715;51.570;6.036;2023-04-04T00:14:51;102861.72;;;3.26;67.39
49827;BME280;35715;51.570;6.036;2023-04-04T00:17:16;102851.63;;;3.20;68.50
49827;BME280;35715;51.570;6.036;2023-04-04T00:19:48;102863.38;;;3.13;68.83
49827;BME280;35715;51.570;6.036;2023-04-04T00:22:13;102859.13;;;3.06;67.73
49827;BME280;35715;51.570;6.036;2023-04-04T00:24:38;102860.03;;;3.07;68.92
49827;BME280;35715;51.570;6.036;2023-04-04T00:27:04;102859.13;;;3.06;67.65
49827;BME280;35715;51.570;6.036;2023-04-04T00:29:29;102859.94;;;3.12;68.48
49827;BME280;35715;51.570;6.036;2023-04-04T00:31:54;102861.50;;;3.05;66.90
49827;BME280;35715;51.570;6.036;2023-04-04T00:34:19;102853.34;;;2.94;66.78
49827;BME280;35715;51.570;6.036;2023-04-04T00:36:44;102864.66;;;2.96;67.32
49827;BME280;35715;51.570;6.036;2023-04-04T00:39:11;102858.94;;;2.92;67.91
49827;BME280;35715;51.570;6.036;2023-04-04T00:41:36;102863.94;;;2.97;67.79
49827;BME280;35715;51.570;6.036;2023-04-04T00:44:01;102858.03;;;2.91;68.73
49827;BME280;35715;51.570;6.036;2023-04-04T00:46:27;102861.00;;;2.94;68.59
49827;BME280;35715;51.570;6.036;2023-04-04T00:48:54;102861.69;;;2.93;67.13
49827;BME280;35715;51.570;6.036;2023-04-04T00:51:19;102863.25;;;2.86;67.95
49827;BME280;35715;51.570;6.036;2023-04-04T00:53:45;102852.56;;;2.88;68.55
49827;BME280;35715;51.570;6.036;2023-04-04T00:56:10;102852.16;;;2.85;69.25
49827;BME280;35715;51.570;6.036;2023-04-04T00:58:40;102851.94;;;2.83;68.05
49827;BME280;35715;51.570;6.036;2023-04-04T01:01:06;102855.00;;;2.81;68.51
49827;BME280;35715;51.570;6.036;2023-04-04T01:03:32;102855.50;;;2.78;68.60
49827;BME280;35715;51.570;6.036;2023-04-04T01:05:57;102858.00;;;2.71;69.16
49827;BME280;35715;51.570;6.036;2023-04-04T01:08:24;102853.09;;;2.73;68.83
49827;BME280;35715;51.570;6.036;2023-04-04T01:10:50;102852.09;;;2.65;68.64
49827;BME280;35715;51.570;6.036;2023-04-04T01:13:15;102845.25;;;2.71;68.98
49827;BME280;35715;51.570;6.036;2023-04-04T01:15:41;102842.69;;;2.71;69.82
49827;BME280;35715;51.570;6.036;2023-04-04T01:18:07;102844.00;;;2.75;69.47
49827;BME280;35715;51.570;6.036;2023-04-04T01:20:33;102828.91;;;2.76;69.70
49827;BME280;35715;51.570;6.036;2023-04-04T01:23:01;102843.69;;;2.79;69.57
49827;BME280;35715;51.570;6.036;2023-04-04T01:25:30;102840.94;;;2.77;69.17
49827;BME280;35715;51.570;6.036;2023-04-04T01:30:26;102847.34;;;2.81;68.94
49827;BME280;35715;51.570;6.036;2023-04-04T01:33:00;102846.06;;;2.77;67.54
49827;BME280;35715;51.570;6.036;2023-04-04T01:38:19;102839.19;;;2.83;67.32
49827;BME280;35715;51.570;6.036;2023-04-04T01:40:50;102837.56;;;2.84;67.81
49827;BME280;35715;51.570;6.036;2023-04-04T01:43:16;102842.84;;;2.86;67.63
49827;BME280;35715;51.570;6.036;2023-04-04T01:45:41;102842.16;;;2.87;67.59
49827;BME280;35715;51.570;6.036;2023-04-04T01:48:06;102833.56;;;2.86;67.72
49827;BME280;35715;51.570;6.036;2023-04-04T01:50:33;102842.84;;;2.86;67.96
49827;BME280;35715;51.570;6.036;2023-04-04T01:52:58;102834.69;;;2.88;67.52
49827;BME280;35715;51.570;6.036;2023-04-04T01:55:23;102832.34;;;2.90;67.20
49827;BME280;35715;51.570;6.036;2023-04-04T01:57:48;102830.91;;;2.92;66.89
49827;BME280;35715;51.570;6.036;2023-04-04T02:00:14;102836.66;;;2.83;67.30
49827;BME280;35715;51.570;6.036;2023-04-04T02:02:39;102830.56;;;2.76;67.46
49827;BME280;35715;51.570;6.036;2023-04-04T02:05:05;102828.31;;;2.72;67.67
49827;BME280;35715;51.570;6.036;2023-04-04T02:07:30;102824.66;;;2.70;67.39
49827;BME280;35715;51.570;6.036;2023-04-04T02:09:56;102825.75;;;2.72;67.26
49827;BME280;35715;51.570;6.036;2023-04-04T02:12:21;102832.31;;;2.70;67.29
49827;BME280;35715;51.570;6.036;2023-04-04T02:14:47;102830.38;;;2.61;67.45
49827;BME280;35715;51.570;6.036;2023-04-04T02:17:13;102828.31;;;2.59;67.50
49827;BME280;35715;51.570;6.036;2023-04-04T02:19:38;102825.97;;;2.60;67.41
49827;BME280;35715;51.570;6.036;2023-04-04T02:22:04;102833.41;;;2.59;67.26
49827;BME280;35715;51.570;6.036;2023-04-04T02:24:30;102839.44;;;2.59;67.29
49827;BME280;35715;51.570;6.036;2023-04-04T02:26:55;102841.06;;;2.59;67.04
49827;BME280;35715;51.570;6.036;2023-04-04T02:29:22;102839.03;;;2.56;67.28
49827;BME280;35715;51.570;6.036;2023-04-04T02:31:47;102845.34;;;2.53;67.44
49827;BME280;35715;51.570;6.036;2023-04-04T02:34:13;102837.09;;;2.48;67.56
49827;BME280;35715;51.570;6.036;2023-04-04T02:36:38;102831.59;;;2.45;66.98
49827;BME280;35715;51.570;6.036;2023-04-04T02:39:04;102832.13;;;2.42;67.23
49827;BME280;35715;51.570;6.036;2023-04-04T02:41:30;102837.53;;;2.38;67.59
49827;BME280;35715;51.570;6.036;2023-04-04T02:43:55;102837.13;;;2.35;67.46
49827;BME280;35715;51.570;6.036;2023-04-04T02:46:20;102836.13;;;2.27;67.58
49827;BME280;35715;51.570;6.036;2023-04-04T02:48:45;102836.81;;;2.26;68.01
49827;BME280;35715;51.570;6.036;2023-04-04T02:51:11;102830.63;;;2.24;67.52
49827;BME280;35715;51.570;6.036;2023-04-04T02:53:36;102836.91;;;2.21;67.54
49827;BME280;35715;51.570;6.036;2023-04-04T02:56:02;102843.03;;;2.16;67.89
49827;BME280;35715;51.570;6.036;2023-04-04T02:58:30;102831.41;;;2.18;67.83
49827;BME280;35715;51.570;6.036;2023-04-04T03:00:55;102842.31;;;2.17;67.65
49827;BME280;35715;51.570;6.036;2023-04-04T03:03:20;102830.31;;;2.16;68.04
49827;BME280;35715;51.570;6.036;2023-04-04T03:05:46;102837.31;;;2.11;68.50
49827;BME280;35715;51.570;6.036;2023-04-04T03:08:15;102822.34;;;2.07;68.28
49827;BME280;35715;51.570;6.036;2023-04-04T03:10:41;102827.44;;;2.07;68.44
49827;BME280;35715;51.570;6.036;2023-04-04T03:13:06;102824.78;;;2.00;69.21
49827;BME280;35715;51.570;6.036;2023-04-04T03:15:31;102822.75;;;1.97;70.07
49827;BME280;35715;51.570;6.036;2023-04-04T03:17:57;102819.06;;;1.95;70.24
49827;BME280;35715;51.570;6.036;2023-04-04T03:20:23;102821.00;;;1.90;71.31
49827;BME280;35715;51.570;6.036;2023-04-04T03:22:48;102810.81;;;1.90;71.68
49827;BME280;35715;51.570;6.036;2023-04-04T03:25:13;102816.03;;;1.85;72.04
49827;BME280;35715;51.570;6.036;2023-04-04T03:27:38;102815.09;;;1.84;72.39
49827;BME280;35715;51.570;6.036;2023-04-04T03:30:04;102817.34;;;1.88;71.94
49827;BME280;35715;51.570;6.036;2023-04-04T03:32:30;102815.41;;;1.93;71.19
49827;BME280;35715;51.570;6.036;2023-04-04T03:34:55;102809.81;;;1.95;71.26
49827;BME280;35715;51.570;6.036;2023-04-04T03:37:20;102819.06;;;1.95;71.11
49827;BME280;35715;51.570;6.036;2023-04-04T03:39:47;102817.06;;;1.92;71.47
49827;BME280;35715;51.570;6.036;2023-04-04T03:42:13;102815.41;;;1.93;70.93
49827;BME280;35715;51.570;6.036;2023-04-04T03:44:39;102812.16;;;1.94;71.20
49827;BME280;35715;51.570;6.036;2023-04-04T03:47:04;102811.03;;;1.92;71.31
49827;BME280;35715;51.570;6.036;2023-04-04T03:49:35;102811.13;;;1.99;70.80
49827;BME280;35715;51.570;6.036;2023-04-04T03:52:00;102812.03;;;2.00;70.50
49827;BME280;35715;51.570;6.036;2023-04-04T03:54:27;102805.16;;;1.99;70.37
49827;BME280;35715;51.570;6.036;2023-04-04T03:56:52;102806.75;;;1.98;70.35
49827;BME280;35715;51.570;6.036;2023-04-04T03:59:18;102808.69;;;1.93;70.56
49827;BME280;35715;51.570;6.036;2023-04-04T04:01:44;102815.63;;;1.94;70.08
49827;BME280;35715;51.570;6.036;2023-04-04T04:04:09;102808.88;;;1.95;69.76
49827;BME280;35715;51.570;6.036;2023-04-04T04:06:35;102803.78;;;1.95;69.73
49827;BME280;35715;51.570;6.036;2023-04-04T04:09:01;102804.72;;;1.95;69.85
49827;BME280;35715;51.570;6.036;2023-04-04T04:11:26;102809.81;;;1.95;69.59
49827;BME280;35715;51.570;6.036;2023-04-04T04:13:51;102796.16;;;1.95;69.19
49827;BME280;35715;51.570;6.036;2023-04-04T04:16:16;102805.63;;;1.96;69.11
49827;BME280;35715;51.570;6.036;2023-04-04T04:18:44;102789.97;;;1.93;69.19
49827;BME280;35715;51.570;6.036;2023-04-04T04:21:09;102790.25;;;1.89;69.20
49827;BME280;35715;51.570;6.036;2023-04-04T04:23:34;102799.53;;;1.88;69.61
49827;BME280;35715;51.570;6.036;2023-04-04T04:25:59;102799.13;;;1.85;69.35
49827;BME280;35715;51.570;6.036;2023-04-04T04:28:32;102796.56;;;1.85;69.41
49827;BME280;35715;51.570;6.036;2023-04-04T04:31:07;102792.38;;;1.86;69.21
49827;BME280;35715;51.570;6.036;2023-04-04T04:33:32;102795.44;;;1.83;69.14
49827;BME280;35715;51.570;6.036;2023-04-04T04:36:04;102798.78;;;1.76;69.45
49827;BME280;35715;51.570;6.036;2023-04-04T04:38:33;102796.53;;;1.72;69.24
49827;BME280;35715;51.570;6.036;2023-04-04T04:40:59;102796.13;;;1.69;68.96
49827;BME280;35715;51.570;6.036;2023-04-04T04:43:24;102799.19;;;1.67;69.41
49827;BME280;35715;51.570;6.036;2023-04-04T04:45:50;102796.13;;;1.69;69.47
49827;BME280;35715;51.570;6.036;2023-04-04T04:48:20;102798.66;;;1.69;69.13
49827;BME280;35715;51.570;6.036;2023-04-04T04:50:46;102795.91;;;1.68;69.02
49827;BME280;35715;51.570;6.036;2023-04-04T04:53:14;102805.00;;;1.66;69.07
49827;BME280;35715;51.570;6.036;2023-04-04T04:55:40;102800.19;;;1.62;69.31
49827;BME280;35715;51.570;6.036;2023-04-04T04:58:09;102805.28;;;1.62;69.06
49827;BME280;35715;51.570;6.036;2023-04-04T05:00:36;102808.56;;;1.61;69.47
49827;BME280;35715;51.570;6.036;2023-04-04T05:03:02;102810.66;;;1.57;69.41
49827;BME280;35715;51.570;6.036;2023-04-04T05:05:30;102808.56;;;1.61;69.20
49827;BME280;35715;51.570;6.036;2023-04-04T05:07:55;102810.38;;;1.62;69.26
49827;BME280;35715;51.570;6.036;2023-04-04T05:10:21;102814.84;;;1.57;69.46
49827;BME280;35715;51.570;6.036;2023-04-04T05:12:46;102814.22;;;1.52;69.77
49827;BME280;35715;51.570;6.036;2023-04-04T05:15:12;102808.22;;;1.52;69.59
49827;BME280;35715;51.570;6.036;2023-04-04T05:17:37;102821.34;;;1.55;69.45
49827;BME280;35715;51.570;6.036;2023-04-04T05:20:03;102813.44;;;1.59;69.37
49827;BME280;35715;51.570;6.036;2023-04-04T05:22:29;102812.69;;;1.60;69.35
49827;BME280;35715;51.570;6.036;2023-04-04T05:24:54;102813.84;;;1.62;69.54
49827;BME280;35715;51.570;6.036;2023-04-04T05:27:21;102816.28;;;1.68;69.54
49827;BME280;35715;51.570;6.036;2023-04-04T05:32:14;102811.59;;;1.71;69.02
49827;BME280;35715;51.570;6.036;2023-04-04T05:34:39;102819.25;;;1.71;69.35
49827;BME280;35715;51.570;6.036;2023-04-04T05:37:05;102820.66;;;1.69;69.26
49827;BME280;35715;51.570;6.036;2023-04-04T05:39:42;102827.88;;;1.66;69.81
49827;BME280;35715;51.570;6.036;2023-04-04T05:42:08;102827.81;;;1.71;69.77
49827;BME280;35715;51.570;6.036;2023-04-04T05:44:33;102828.03;;;1.73;69.77
49827;BME280;35715;51.570;6.036;2023-04-04T05:46:58;102836.28;;;1.77;69.45
49827;BME280;35715;51.570;6.036;2023-04-04T05:49:23;102831.78;;;1.82;70.05
49827;BME280;35715;51.570;6.036;2023-04-04T05:51:48;102836.38;;;1.85;69.94
49827;BME280;35715;51.570;6.036;2023-04-04T05:54:14;102828.63;;;1.90;69.85
49827;BME280;35715;51.570;6.036;2023-04-04T05:56:39;102840.78;;;1.99;70.10
49827;BME280;35715;51.570;6.036;2023-04-04T05:59:15;102842.41;;;2.11;70.27
49827;BME280;35715;51.570;6.036;2023-04-04T06:01:40;102844.53;;;2.21;69.98
49827;BME280;35715;51.570;6.036;2023-04-04T06:04:05;102848.09;;;2.28;69.78
49827;BME280;35715;51.570;6.036;2023-04-04T06:06:31;102845.06;;;2.44;69.30
49827;BME280;35715;51.570;6.036;2023-04-04T06:09:01;102847.41;;;2.68;68.51
49827;BME280;35715;51.570;6.036;2023-04-04T06:11:27;102844.75;;;2.61;68.38
49827;BME280;35715;51.570;6.036;2023-04-04T06:13:52;102851.06;;;2.57;68.11
49827;BME280;35715;51.570;6.036;2023-04-04T06:16:19;102851.66;;;2.62;68.45
49827;BME280;35715;51.570;6.036;2023-04-04T06:18:47;102852.84;;;2.84;68.19
49827;BME280;35715;51.570;6.036;2023-04-04T06:21:12;102847.84;;;3.24;67.25
49827;BME280;35715;51.570;6.036;2023-04-04T06:23:38;102851.13;;;3.23;66.25
49827;BME280;35715;51.570;6.036;2023-04-04T06:26:03;102856.69;;;3.33;66.38
49827;BME280;35715;51.570;6.036;2023-04-04T06:28:30;102867.28;;;3.36;65.67
49827;BME280;35715;51.570;6.036;2023-04-04T06:30:55;102866.44;;;3.63;65.97
49827;BME280;35715;51.570;6.036;2023-04-04T06:33:20;102865.72;;;3.64;64.55
49827;BME280;35715;51.570;6.036;2023-04-04T06:35:45;102866.22;;;3.62;65.07
49827;BME280;35715;51.570;6.036;2023-04-04T06:38:13;102861.59;;;3.72;64.88
49827;BME280;35715;51.570;6.036;2023-04-04T06:40:38;102865.50;;;3.83;64.54
49827;BME280;35715;51.570;6.036;2023-04-04T06:43:03;102862.88;;;3.96;63.39
49827;BME280;35715;51.570;6.036;2023-04-04T06:45:29;102876.31;;;4.15;62.62
49827;BME280;35715;51.570;6.036;2023-04-04T06:48:04;102876.38;;;4.49;61.28
49827;BME280;35715;51.570;6.036;2023-04-04T06:50:29;102868.41;;;5.09;60.89
49827;BME280;35715;51.570;6.036;2023-04-04T06:52:59;102863.56;;;5.68;58.30
49827;BME280;35715;51.570;6.036;2023-04-04T06:55:25;102865.69;;;6.52;57.12
49827;BME280;35715;51.570;6.036;2023-04-04T06:57:52;102859.78;;;7.12;54.83
49827;BME280;35715;51.570;6.036;2023-04-04T07:00:17;102859.31;;;7.77;53.91
49827;BME280;35715;51.570;6.036;2023-04-04T07:02:43;102859.56;;;8.10;52.15
49827;BME280;35715;51.570;6.036;2023-04-04T07:05:08;102857.50;;;7.53;49.31
49827;BME280;35715;51.570;6.036;2023-04-04T07:07:34;102859.31;;;7.77;51.22
49827;BME280;35715;51.570;6.036;2023-04-04T07:09:59;102853.50;;;8.10;50.78
49827;BME280;35715;51.570;6.036;2023-04-04T07:12:25;102852.38;;;8.15;49.41
49827;BME280;35715;51.570;6.036;2023-04-04T07:14:50;102851.09;;;8.50;49.26
49827;BME280;35715;51.570;6.036;2023-04-04T07:17:17;102833.59;;;8.96;47.29
49827;BME280;35715;51.570;6.036;2023-04-04T07:19:50;102840.84;;;9.16;47.05
49827;BME280;35715;51.570;6.036;2023-04-04T07:22:17;102848.50;;;9.81;47.23
49827;BME280;35715;51.570;6.036;2023-04-04T07:24:43;102851.88;;;10.40;45.52
49827;BME280;35715;51.570;6.036;2023-04-04T07:27:08;102850.25;;;10.67;44.02
49827;BME280;35715;51.570;6.036;2023-04-04T07:29:45;102842.19;;;11.07;44.93
49827;BME280;35715;51.570;6.036;2023-04-04T07:32:10;102842.69;;;11.57;44.61
49827;BME280;35715;51.570;6.036;2023-04-04T07:34:36;102849.06;;;11.97;43.10
49827;BME280;35715;51.570;6.036;2023-04-04T07:37:01;102843.41;;;12.29;41.33
49827;BME280;35715;51.570;6.036;2023-04-04T07:39:30;102844.19;;;12.47;41.34
49827;BME280;35715;51.570;6.036;2023-04-04T07:41:56;102852.72;;;12.27;39.21
49827;BME280;35715;51.570;6.036;2023-04-04T07:44:21;102841.13;;;12.51;40.31
49827;BME280;35715;51.570;6.036;2023-04-04T07:46:47;102837.50;;;13.17;39.22
49827;BME280;35715;51.570;6.036;2023-04-04T07:49:19;102842.13;;;13.29;37.53
49827;BME280;35715;51.570;6.036;2023-04-04T07:51:45;102849.03;;;13.79;37.83
49827;BME280;35715;51.570;6.036;2023-04-04T07:54:10;102843.25;;;14.33;37.82
49827;BME280;35715;51.570;6.036;2023-04-04T07:56:35;102839.09;;;14.14;37.15
49827;BME280;35715;51.570;6.036;2023-04-04T07:59:01;102844.81;;;14.31;37.01
49827;BME280;35715;51.570;6.036;2023-04-04T08:01:26;102838.88;;;14.63;34.54
49827;BME280;35715;51.570;6.036;2023-04-04T08:03:51;102843.13;;;14.52;33.66
49827;BME280;35715;51.570;6.036;2023-04-04T08:06:17;102841.13;;;14.90;34.87
49827;BME280;35715;51.570;6.036;2023-04-04T08:08:47;102844.34;;;15.63;34.75
49827;BME280;35715;51.570;6.036;2023-04-04T08:11:13;102842.38;;;16.27;34.21
49827;BME280;35715;51.570;6.036;2023-04-04T08:13:38;102843.38;;;16.29;31.92
49827;BME280;35715;51.570;6.036;2023-04-04T08:16:04;102845.28;;;16.54;33.37
49827;BME280;35715;51.570;6.036;2023-04-04T08:18:30;102840.00;;;16.30;29.94
49827;BME280;35715;51.570;6.036;2023-04-04T08:20:55;102842.69;;;16.20;31.44
49827;BME280;35715;51.570;6.036;2023-04-04T08:23:21;102843.03;;;15.90;31.86
49827;BME280;35715;51.570;6.036;2023-04-04T08:25:46;102834.41;;;15.79;30.60
49827;BME280;35715;51.570;6.036;2023-04-04T08:30:39;102833.22;;;15.21;32.10
49827;BME280;35715;51.570;6.036;2023-04-04T08:33:05;102837.69;;;15.12;30.87
49827;BME280;35715;51.570;6.036;2023-04-04T08:35:30;102836.13;;;15.14;30.91
49827;BME280;35715;51.570;6.036;2023-04-04T08:38:01;102828.16;;;14.80;28.94
49827;BME280;35715;51.570;6.036;2023-04-04T08:40:30;102823.41;;;14.64;31.03
49827;BME280;35715;51.570;6.036;2023-04-04T08:42:55;102820.63;;;14.73;30.83
49827;BME280;35715;51.570;6.036;2023-04-04T08:45:21;102827.66;;;14.12;30.41
49827;BME280;35715;51.570;6.036;2023-04-04T08:47:48;102839.63;;;14.20;29.39
49827;BME280;35715;51.570;6.036;2023-04-04T08:50:15;102833.50;;;14.71;31.82
49827;BME280;35715;51.570;6.036;2023-04-04T08:52:41;102835.72;;;14.46;30.36
49827;BME280;35715;51.570;6.036;2023-04-04T08:55:07;102820.81;;;14.64;29.86
49827;BME280;35715;51.570;6.036;2023-04-04T08:57:33;102821.34;;;14.93;28.88
49827;BME280;35715;51.570;6.036;2023-04-04T08:59:59;102825.59;;;14.49;27.98
49827;BME280;35715;51.570;6.036;2023-04-04T09:04:56;102827.00;;;14.56;29.06
49827;BME280;35715;51.570;6.036;2023-04-04T09:07:22;102830.28;;;14.33;29.56
49827;BME280;35715;51.570;6.036;2023-04-04T09:10:03;102822.84;;;14.68;30.54
49827;BME280;35715;51.570;6.036;2023-04-04T09:12:30;102828.47;;;15.05;30.23
49827;BME280;35715;51.570;6.036;2023-04-04T09:14:56;102818.44;;;14.78;30.83
49827;BME280;35715;51.570;6.036;2023-04-04T09:17:23;102820.38;;;14.70;30.76
49827;BME280;35715;51.570;6.036;2023-04-04T09:19:49;102824.28;;;14.75;31.10
49827;BME280;35715;51.570;6.036;2023-04-04T09:22:15;102817.59;;;14.99;29.72
49827;BME280;35715;51.570;6.036;2023-04-04T09:24:41;102816.97;;;15.24;29.29
49827;BME280;35715;51.570;6.036;2023-04-04T09:27:07;102820.06;;;15.30;29.93
49827;BME280;35715;51.570;6.036;2023-04-04T09:29:41;102816.94;;;15.02;30.31
49827;BME280;35715;51.570;6.036;2023-04-04T09:32:07;102812.19;;;14.76;30.45
49827;BME280;35715;51.570;6.036;2023-04-04T09:34:32;102805.66;;;15.23;29.52
49827;BME280;35715;51.570;6.036;2023-04-04T09:36:57;102806.34;;;15.87;28.76
49827;BME280;35715;51.570;6.036;2023-04-04T09:39:25;102807.50;;;16.48;28.81
49827;BME280;35715;51.570;6.036;2023-04-04T09:41:51;102804.44;;;16.19;28.70
49827;BME280;35715;51.570;6.036;2023-04-04T09:44:16;102798.75;;;16.12;27.30
49827;BME280;35715;51.570;6.036;2023-04-04T09:46:42;102813.28;;;15.54;29.16
49827;BME280;35715;51.570;6.036;2023-04-04T09:49:21;102815.16;;;15.45;29.50
49827;BME280;35715;51.570;6.036;2023-04-04T09:51:47;102800.38;;;16.00;29.13
49827;BME280;35715;51.570;6.036;2023-04-04T09:54:15;102799.72;;;16.03;29.13
49827;BME280;35715;51.570;6.036;2023-04-04T09:56:44;102803.50;;;15.62;29.27
49827;BME280;35715;51.570;6.036;2023-04-04T09:59:09;102795.09;;;16.10;28.70
49827;BME280;35715;51.570;6.036;2023-04-04T10:01:36;102793.00;;;16.40;27.77
49827;BME280;35715;51.570;6.036;2023-04-04T10:04:01;102796.38;;;17.46;28.12
49827;BME280;35715;51.570;6.036;2023-04-04T10:06:27;102789.72;;;18.13;26.65
49827;BME280;35715;51.570;6.036;2023-04-04T10:08:53;102789.72;;;16.55;27.31
49827;BME280;35715;51.570;6.036;2023-04-04T10:11:30;102789.97;;;16.46;27.18
49827;BME280;35715;51.570;6.036;2023-04-04T10:13:58;102793.53;;;16.12;28.17
49827;BME280;35715;51.570;6.036;2023-04-04T10:16:23;102792.00;;;17.09;26.74
49827;BME280;35715;51.570;6.036;2023-04-04T10:18:51;102787.28;;;17.78;26.92
49827;BME280;35715;51.570;6.036;2023-04-04T10:21:17;102794.22;;;18.02;27.76
49827;BME280;35715;51.570;6.036;2023-04-04T10:23:46;102785.50;;;18.02;25.99
49827;BME280;35715;51.570;6.036;2023-04-04T10:26:12;102792.22;;;18.12;27.17
49827;BME280;35715;51.570;6.036;2023-04-04T10:28:38;102788.88;;;18.01;26.58
49827;BME280;35715;51.570;6.036;2023-04-04T10:36:29;102781.56;;;19.14;25.43
49827;BME280;35715;51.570;6.036;2023-04-04T10:39:31;102767.63;;;17.09;27.63
49827;BME280;35715;51.570;6.036;2023-04-04T10:41:48;102780.47;;;17.06;28.32
49827;BME280;35715;51.570;6.036;2023-04-04T10:44:28;102772.41;;;18.67;26.10
49827;BME280;35715;51.570;6.036;2023-04-04T10:46:54;102773.09;;;19.75;25.16
49827;BME280;35715;51.570;6.036;2023-04-04T10:51:53;102755.47;;;20.00;23.96
49827;BME280;35715;51.570;6.036;2023-04-04T10:54:20;102765.19;;;18.90;23.94
49827;BME280;35715;51.570;6.036;2023-04-04T10:56:45;102769.66;;;18.39;25.40
49827;BME280;35715;51.570;6.036;2023-04-04T10:59:16;102761.03;;;18.40;25.50
49827;BME280;35715;51.570;6.036;2023-04-04T11:01:45;102751.94;;;18.08;25.94
49827;BME280;35715;51.570;6.036;2023-04-04T11:04:14;102764.50;;;17.63;26.93
49827;BME280;35715;51.570;6.036;2023-04-04T11:12:13;102759.03;;;18.89;24.43
49827;BME280;35715;51.570;6.036;2023-04-04T11:15:05;102754.38;;;20.27;23.53
49827;BME280;35715;51.570;6.036;2023-04-04T11:20:21;102755.31;;;18.46;24.96
49827;BME280;35715;51.570;6.036;2023-04-04T11:22:48;102742.63;;;18.78;25.34
49827;BME280;35715;51.570;6.036;2023-04-04T11:25:33;102740.63;;;18.61;25.35
49827;BME280;35715;51.570;6.036;2023-04-04T11:28:07;102729.63;;;17.88;25.63
49827;BME280;35715;51.570;6.036;2023-04-04T11:30:37;102726.66;;;18.87;25.50
49827;BME280;35715;51.570;6.036;2023-04-04T11:33:08;102733.50;;;19.27;24.81
49827;BME280;35715;51.570;6.036;2023-04-04T11:35:36;102728.19;;;19.68;24.30
49827;BME280;35715;51.570;6.036;2023-04-04T11:38:02;102720.19;;;20.10;24.50
49827;BME280;35715;51.570;6.036;2023-04-04T11:40:35;102719.31;;;19.52;23.56
49827;BME280;35715;51.570;6.036;2023-04-04T11:43:00;102720.50;;;17.56;26.99
49827;BME280;35715;51.570;6.036;2023-04-04T11:45:30;102712.97;;;18.11;26.71
49827;BME280;35715;51.570;6.036;2023-04-04T11:50:35;102712.78;;;17.58;25.95
49827;BME280;35715;51.570;6.036;2023-04-04T11:53:06;102716.41;;;17.34;27.32
49827;BME280;35715;51.570;6.036;2023-04-04T11:55:32;102717.97;;;17.07;30.60
49827;BME280;35715;51.570;6.036;2023-04-04T11:58:09;102718.00;;;17.32;27.02
49827;BME280;35715;51.570;6.036;2023-04-04T12:00:35;102709.97;;;18.85;26.73
49827;BME280;35715;51.570;6.036;2023-04-04T12:03:08;102707.31;;;19.83;25.65
49827;BME280;35715;51.570;6.036;2023-04-04T12:05:35;102699.81;;;20.51;23.67
49827;BME280;35715;51.570;6.036;2023-04-04T12:08:01;102695.47;;;20.51;24.29
49827;BME280;35715;51.570;6.036;2023-04-04T12:10:28;102699.66;;;19.02;26.05
49827;BME280;35715;51.570;6.036;2023-04-04T12:12:57;102702.09;;;18.72;25.74
49827;BME280;35715;51.570;6.036;2023-04-04T12:15:22;102699.09;;;18.79;26.98
49827;BME280;35715;51.570;6.036;2023-04-04T12:17:57;102696.72;;;19.39;26.65
49827;BME280;35715;51.570;6.036;2023-04-04T12:20:23;102689.06;;;17.80;25.40
49827;BME280;35715;51.570;6.036;2023-04-04T12:22:49;102701.72;;;18.25;25.92
49827;BME280;35715;51.570;6.036;2023-04-04T12:25:17;102688.44;;;19.18;24.26
49827;BME280;35715;51.570;6.036;2023-04-04T12:27:44;102677.91;;;19.31;25.97
49827;BME280;35715;51.570;6.036;2023-04-04T12:30:09;102679.44;;;19.27;25.12
49827;BME280;35715;51.570;6.036;2023-04-04T12:32:39;102678.44;;;19.98;24.75
49827;BME280;35715;51.570;6.036;2023-04-04T12:35:05;102679.16;;;18.68;25.51
49827;BME280;35715;51.570;6.036;2023-04-04T12:37:30;102677.78;;;18.06;26.03
49827;BME280;35715;51.570;6.036;2023-04-04T12:42:42;102667.72;;;18.66;25.87
49827;BME280;35715;51.570;6.036;2023-04-04T12:47:56;102653.66;;;18.50;26.26
49827;BME280;35715;51.570;6.036;2023-04-04T12:50:26;102646.94;;;18.00;27.29
49827;BME280;35715;51.570;6.036;2023-04-04T12:52:52;102645.91;;;16.84;27.16
49827;BME280;35715;51.570;6.036;2023-04-04T12:55:19;102649.22;;;16.70;27.32
49827;BME280;35715;51.570;6.036;2023-04-04T12:57:44;102644.97;;;15.87;28.35
49827;BME280;35715;51.570;6.036;2023-04-04T13:00:10;102643.91;;;15.05;30.58
49827;BME280;35715;51.570;6.036;2023-04-04T13:02:38;102639.53;;;15.50;28.05
49827;BME280;35715;51.570;6.036;2023-04-04T13:05:06;102637.81;;;15.17;32.54
49827;BME280;35715;51.570;6.036;2023-04-04T13:07:35;102630.59;;;15.47;30.68
49827;BME280;35715;51.570;6.036;2023-04-04T13:10:07;102629.59;;;15.68;30.05
49827;BME280;35715;51.570;6.036;2023-04-04T13:15:17;102624.53;;;15.58;29.75
49827;BME280;35715;51.570;6.036;2023-04-04T13:17:43;102624.03;;;15.40;27.71
49827;BME280;35715;51.570;6.036;2023-04-04T13:20:09;102617.75;;;15.26;31.96
49827;BME280;35715;51.570;6.036;2023-04-04T13:22:38;102616.91;;;15.15;31.55
49827;BME280;35715;51.570;6.036;2023-04-04T13:25:04;102613.06;;;14.88;30.63
49827;BME280;35715;51.570;6.036;2023-04-04T13:27:29;102611.00;;;14.29;30.53
49827;BME280;35715;51.570;6.036;2023-04-04T13:29:55;102602.91;;;14.04;31.07
49827;BME280;35715;51.570;6.036;2023-04-04T13:32:20;102607.56;;;14.08;31.03